EJU42YF LPMA-LPPR
Flight info
| Callsign | EJU42YF |
|---|---|
| Flight time | N/A |
| Altitude | 36000 |
| Route | DEGUN DCT VABEM DCT ASMAR DCT DIRMA DCT ASMOV |
| Aircraft | A320/M-SDE3FGHIRWY/LB1 |
Departure
| Time | 2026-05-06 18:58 |
|---|---|
| Airport | Cristiano Ronaldo International Airport (LPMA) |
Arrival
| Time | N/A |
|---|---|
| Airport | Francisco de Sá Carneiro Airport (LPPR) |
| Time | Latitude | Longitude | Altitude | Speed | Heading |
|---|---|---|---|---|---|
| 2026-05-06 18:37 | 32.69279 | -16.77754 | 174 ft | 0 kts | 137° |
| 2026-05-06 18:46 | 32.69292 | -16.77768 | 173 ft | 3 kts | 137° |
| 2026-05-06 18:46 | 32.69310 | -16.77786 | 171 ft | 4 kts | 153° |
| 2026-05-06 18:47 | 32.69332 | -16.77793 | 169 ft | 4 kts | 194° |
| 2026-05-06 18:47 | 32.69348 | -16.77784 | 169 ft | 1 kts | 227° |
| 2026-05-06 18:47 | 32.69349 | -16.77781 | 169 ft | 1 kts | 227° |
| 2026-05-06 18:51 | 32.69347 | -16.77784 | 169 ft | 2 kts | 227° |
| 2026-05-06 18:51 | 32.69319 | -16.77818 | 168 ft | 9 kts | 225° |
| 2026-05-06 18:51 | 32.69291 | -16.77878 | 167 ft | 0 kts | 261° |
| 2026-05-06 18:55 | 32.69289 | -16.77896 | 166 ft | 8 kts | 265° |
| 2026-05-06 18:55 | 32.69247 | -16.78072 | 161 ft | 28 kts | 232° |
| 2026-05-06 18:55 | 32.69104 | -16.78242 | 160 ft | 31 kts | 224° |
| 2026-05-06 18:56 | 32.68960 | -16.78388 | 157 ft | 19 kts | 190° |
| 2026-05-06 18:56 | 32.68892 | -16.78429 | 156 ft | 8 kts | 237° |
| 2026-05-06 18:56 | 32.68916 | -16.78462 | 156 ft | 5 kts | 7° |
| 2026-05-06 18:56 | 32.68949 | -16.78423 | 156 ft | 8 kts | 46° |
| 2026-05-06 18:57 | 32.68966 | -16.78403 | 157 ft | 0 kts | 44° |
| 2026-05-06 18:58 | 32.68979 | -16.78388 | 157 ft | 20 kts | 44° |
| 2026-05-06 18:58 | 32.69312 | -16.78000 | 163 ft | 108 kts | 44° |
| 2026-05-06 18:58 | 32.70005 | -16.77203 | 276 ft | 159 kts | 42° |
| 2026-05-06 18:58 | 32.70734 | -16.76237 | 1183 ft | 155 kts | 59° |
| 2026-05-06 18:59 | 32.70976 | -16.74933 | 1835 ft | 176 kts | 87° |
| 2026-05-06 18:59 | 32.70695 | -16.73402 | 2253 ft | 206 kts | 105° |
| 2026-05-06 18:59 | 32.70187 | -16.71724 | 2692 ft | 227 kts | 107° |
| 2026-05-06 18:59 | 32.69606 | -16.69873 | 3271 ft | 251 kts | 108° |
| 2026-05-06 19:00 | 32.68968 | -16.67857 | 4183 ft | 267 kts | 108° |
| 2026-05-06 19:00 | 32.68304 | -16.65757 | 5266 ft | 277 kts | 108° |
| 2026-05-06 19:00 | 32.67623 | -16.63592 | 5827 ft | 282 kts | 108° |
| 2026-05-06 19:00 | 32.67168 | -16.62139 | 6176 ft | 286 kts | 108° |
| 2026-05-06 19:01 | 32.66259 | -16.59163 | 7728 ft | 289 kts | 104° |
| 2026-05-06 19:01 | 32.65966 | -16.56797 | 8820 ft | 292 kts | 86° |
| 2026-05-06 19:01 | 32.66099 | -16.55212 | 9544 ft | 293 kts | 75° |
| 2026-05-06 19:01 | 32.66774 | -16.52923 | 10433 ft | 302 kts | 59° |
| 2026-05-06 19:02 | 32.68055 | -16.50884 | 10912 ft | 321 kts | 41° |
| 2026-05-06 19:02 | 32.69721 | -16.49032 | 11675 ft | 333 kts | 40° |
| 2026-05-06 19:02 | 32.71980 | -16.46500 | 12948 ft | 341 kts | 40° |
| 2026-05-06 19:02 | 32.73146 | -16.45181 | 13605 ft | 345 kts | 40° |
| 2026-05-06 19:03 | 32.74893 | -16.43192 | 14476 ft | 350 kts | 40° |
| 2026-05-06 19:03 | 32.76628 | -16.41206 | 15312 ft | 354 kts | 40° |
| 2026-05-06 19:03 | 32.78387 | -16.39184 | 16160 ft | 358 kts | 40° |
| 2026-05-06 19:03 | 32.80175 | -16.37127 | 17009 ft | 363 kts | 40° |
| 2026-05-06 19:04 | 32.81993 | -16.35040 | 17852 ft | 367 kts | 39° |
| 2026-05-06 19:04 | 32.83850 | -16.32914 | 18653 ft | 371 kts | 39° |
| 2026-05-06 19:04 | 32.85718 | -16.30778 | 19408 ft | 374 kts | 39° |
| 2026-05-06 19:04 | 32.87600 | -16.28625 | 20200 ft | 376 kts | 39° |
| 2026-05-06 19:05 | 32.89465 | -16.26488 | 20981 ft | 377 kts | 38° |
| 2026-05-06 19:05 | 32.91380 | -16.24290 | 21759 ft | 379 kts | 38° |
| 2026-05-06 19:05 | 32.93280 | -16.22106 | 22525 ft | 380 kts | 38° |
| 2026-05-06 19:05 | 32.95187 | -16.19912 | 23286 ft | 382 kts | 38° |
| 2026-05-06 19:06 | 32.97102 | -16.17708 | 23869 ft | 383 kts | 38° |
| 2026-05-06 19:06 | 32.99021 | -16.15503 | 24045 ft | 383 kts | 38° |
| 2026-05-06 19:06 | 33.00910 | -16.13330 | 24103 ft | 383 kts | 38° |
| 2026-05-06 19:06 | 33.02824 | -16.11124 | 24109 ft | 382 kts | 38° |
| 2026-05-06 19:07 | 33.04736 | -16.08918 | 24105 ft | 382 kts | 38° |
| 2026-05-06 19:07 | 33.06664 | -16.06694 | 24476 ft | 387 kts | 38° |
| 2026-05-06 19:07 | 33.08605 | -16.04455 | 25076 ft | 389 kts | 38° |
| 2026-05-06 19:07 | 33.10560 | -16.02203 | 25634 ft | 392 kts | 38° |
| 2026-05-06 19:08 | 33.12535 | -15.99928 | 26170 ft | 395 kts | 38° |
| 2026-05-06 19:08 | 33.14518 | -15.97640 | 26699 ft | 398 kts | 38° |
| 2026-05-06 19:08 | 33.16517 | -15.95329 | 27217 ft | 402 kts | 38° |
| 2026-05-06 19:08 | 33.18529 | -15.92999 | 27734 ft | 405 kts | 38° |
| 2026-05-06 19:09 | 33.20556 | -15.90647 | 28249 ft | 408 kts | 38° |
| 2026-05-06 19:09 | 33.22573 | -15.88304 | 28744 ft | 411 kts | 38° |
| 2026-05-06 19:09 | 33.24633 | -15.85907 | 29238 ft | 415 kts | 38° |
| 2026-05-06 19:09 | 33.26704 | -15.83498 | 29720 ft | 418 kts | 38° |
| 2026-05-06 19:10 | 33.28797 | -15.81067 | 30182 ft | 421 kts | 37° |
| 2026-05-06 19:10 | 33.30907 | -15.78620 | 30559 ft | 424 kts | 37° |
| 2026-05-06 19:10 | 33.33037 | -15.76149 | 30931 ft | 427 kts | 37° |
| 2026-05-06 19:10 | 33.35172 | -15.73667 | 31303 ft | 430 kts | 37° |
| 2026-05-06 19:11 | 33.37324 | -15.71160 | 31674 ft | 433 kts | 37° |
| 2026-05-06 19:11 | 33.39486 | -15.68635 | 32036 ft | 435 kts | 37° |
| 2026-05-06 19:11 | 33.41703 | -15.66196 | 32529 ft | 430 kts | 32° |
| 2026-05-06 19:11 | 33.44143 | -15.64197 | 33027 ft | 422 kts | 24° |
| 2026-05-06 19:12 | 33.46664 | -15.62398 | 33533 ft | 421 kts | 24° |
| 2026-05-06 19:12 | 33.49181 | -15.60606 | 34057 ft | 420 kts | 24° |
| 2026-05-06 19:12 | 33.51693 | -15.58815 | 34506 ft | 420 kts | 24° |
| 2026-05-06 19:12 | 33.54169 | -15.57045 | 34939 ft | 419 kts | 24° |
| 2026-05-06 19:13 | 33.56671 | -15.55255 | 35363 ft | 419 kts | 24° |
| 2026-05-06 19:13 | 33.59175 | -15.53464 | 35776 ft | 418 kts | 23° |
| 2026-05-06 19:13 | 33.61678 | -15.51671 | 36041 ft | 419 kts | 23° |
| 2026-05-06 19:14 | 33.66650 | -15.48091 | 36097 ft | 414 kts | 23° |
| 2026-05-06 19:14 | 33.71577 | -15.44548 | 36099 ft | 412 kts | 23° |
| 2026-05-06 19:15 | 33.76501 | -15.41010 | 36098 ft | 412 kts | 23° |
| 2026-05-06 19:15 | 33.81427 | -15.37454 | 36096 ft | 413 kts | 23° |
| 2026-05-06 19:16 | 33.86319 | -15.33922 | 36098 ft | 412 kts | 23° |
| 2026-05-06 19:16 | 33.91244 | -15.30378 | 36101 ft | 412 kts | 23° |
| 2026-05-06 19:17 | 33.96170 | -15.26813 | 36102 ft | 413 kts | 23° |
| 2026-05-06 19:17 | 34.01095 | -15.23235 | 36100 ft | 413 kts | 23° |
| 2026-05-06 19:18 | 34.05985 | -15.19686 | 36098 ft | 413 kts | 23° |
| 2026-05-06 19:18 | 34.10912 | -15.16110 | 36101 ft | 413 kts | 23° |
| 2026-05-06 19:19 | 34.15844 | -15.12531 | 36103 ft | 413 kts | 23° |
| 2026-05-06 19:19 | 34.20782 | -15.08928 | 36104 ft | 414 kts | 23° |
| 2026-05-06 19:20 | 34.25678 | -15.05349 | 36103 ft | 414 kts | 23° |
| 2026-05-06 19:20 | 34.30610 | -15.01746 | 36099 ft | 414 kts | 23° |
| 2026-05-06 19:21 | 34.35547 | -14.98141 | 36096 ft | 414 kts | 23° |
| 2026-05-06 19:21 | 34.40488 | -14.94524 | 36085 ft | 414 kts | 23° |
| 2026-05-06 19:22 | 34.45416 | -14.90904 | 36084 ft | 414 kts | 23° |
| 2026-05-06 19:22 | 34.50323 | -14.87296 | 36085 ft | 415 kts | 23° |
| 2026-05-06 19:23 | 34.55265 | -14.83656 | 36085 ft | 415 kts | 23° |
| 2026-05-06 19:23 | 34.60207 | -14.80025 | 36098 ft | 415 kts | 23° |
| 2026-05-06 19:24 | 34.65120 | -14.76407 | 36100 ft | 416 kts | 23° |
| 2026-05-06 19:24 | 34.70066 | -14.72747 | 36098 ft | 416 kts | 23° |
| 2026-05-06 19:25 | 34.75014 | -14.69076 | 36095 ft | 416 kts | 23° |
| 2026-05-06 19:25 | 34.79966 | -14.65406 | 36103 ft | 417 kts | 23° |
| 2026-05-06 19:26 | 34.84927 | -14.61739 | 36109 ft | 417 kts | 23° |
| 2026-05-06 19:26 | 34.89849 | -14.58073 | 36112 ft | 417 kts | 23° |
| 2026-05-06 19:27 | 34.94804 | -14.54377 | 36109 ft | 418 kts | 23° |
| 2026-05-06 19:27 | 34.99772 | -14.50684 | 36109 ft | 418 kts | 23° |
| 2026-05-06 19:28 | 35.04734 | -14.46987 | 36107 ft | 418 kts | 23° |
| 2026-05-06 19:28 | 35.09701 | -14.43268 | 36105 ft | 418 kts | 23° |
| 2026-05-06 19:29 | 35.14634 | -14.39577 | 36105 ft | 418 kts | 23° |
| 2026-05-06 19:29 | 35.19597 | -14.35857 | 36100 ft | 418 kts | 23° |
| 2026-05-06 19:30 | 35.24551 | -14.32135 | 36096 ft | 418 kts | 23° |
| 2026-05-06 19:30 | 35.29475 | -14.28435 | 36098 ft | 418 kts | 23° |
| 2026-05-06 19:31 | 35.34428 | -14.24707 | 36088 ft | 418 kts | 24° |
| 2026-05-06 19:31 | 35.41860 | -14.19103 | 36078 ft | 418 kts | 24° |
| 2026-05-06 19:32 | 35.46815 | -14.15356 | 36083 ft | 418 kts | 24° |
| 2026-05-06 19:32 | 35.51745 | -14.11626 | 36080 ft | 418 kts | 24° |
| 2026-05-06 19:33 | 35.56697 | -14.07872 | 36081 ft | 418 kts | 24° |
| 2026-05-06 19:33 | 35.61645 | -14.04122 | 36084 ft | 418 kts | 24° |
| 2026-05-06 19:34 | 35.66641 | -14.00332 | 36091 ft | 427 kts | 24° |
| 2026-05-06 19:34 | 35.71780 | -13.96433 | 36077 ft | 439 kts | 24° |
| 2026-05-06 19:35 | 35.76968 | -13.92481 | 36078 ft | 442 kts | 24° |
| 2026-05-06 19:35 | 35.82199 | -13.88479 | 36078 ft | 442 kts | 24° |
| 2026-05-06 19:36 | 35.87428 | -13.84463 | 36078 ft | 443 kts | 24° |
| 2026-05-06 19:36 | 35.92665 | -13.80442 | 36080 ft | 443 kts | 24° |
| 2026-05-06 19:37 | 35.97900 | -13.76432 | 36085 ft | 443 kts | 24° |
| 2026-05-06 19:37 | 36.02225 | -13.73026 | 36085 ft | 444 kts | 26° |
| 2026-05-06 19:38 | 36.08234 | -13.68129 | 36084 ft | 445 kts | 26° |
| 2026-05-06 19:38 | 36.13383 | -13.63875 | 36082 ft | 445 kts | 26° |
| 2026-05-06 19:39 | 36.18555 | -13.59652 | 36081 ft | 445 kts | 26° |
| 2026-05-06 19:39 | 36.19396 | -13.58967 | 36082 ft | 445 kts | 26° |